sensor_id;sensor_type;location;lat;lon;timestamp;P1;durP1;ratioP1;P2;durP2;ratioP2
215;SDS011;70668;48.81286795;9.14184224;2023-08-30T00:00:03;12.10;;;10.30;;
215;SDS011;70668;48.81286795;9.14184224;2023-08-30T00:02:35;13.03;;;10.03;;
215;SDS011;70668;48.81286795;9.14184224;2023-08-30T00:05:04;13.93;;;10.70;;
215;SDS011;70668;48.81286795;9.14184224;2023-08-30T00:07:33;16.23;;;11.20;;
215;SDS011;70668;48.81286795;9.14184224;2023-08-30T00:10:05;18.37;;;10.97;;
215;SDS011;70668;48.81286795;9.14184224;2023-08-30T00:12:36;14.90;;;11.33;;
215;SDS011;70668;48.81286795;9.14184224;2023-08-30T00:15:05;17.43;;;11.13;;
215;SDS011;70668;48.81286795;9.14184224;2023-08-30T00:17:37;15.50;;;10.80;;
215;SDS011;70668;48.81286795;9.14184224;2023-08-30T00:20:06;18.80;;;11.80;;
215;SDS011;70668;48.81286795;9.14184224;2023-08-30T00:22:35;15.10;;;11.37;;
215;SDS011;70668;48.81286795;9.14184224;2023-08-30T00:25:05;17.23;;;11.70;;
215;SDS011;70668;48.81286795;9.14184224;2023-08-30T00:27:34;16.77;;;12.20;;
215;SDS011;70668;48.81286795;9.14184224;2023-08-30T00:30:03;18.50;;;12.80;;
215;SDS011;70668;48.81286795;9.14184224;2023-08-30T00:32:33;18.10;;;12.80;;
215;SDS011;70668;48.81286795;9.14184224;2023-08-30T00:35:05;16.17;;;12.77;;
215;SDS011;70668;48.81286795;9.14184224;2023-08-30T00:37:34;17.30;;;12.40;;
215;SDS011;70668;48.81286795;9.14184224;2023-08-30T00:40:03;18.03;;;13.47;;
215;SDS011;70668;48.81286795;9.14184224;2023-08-30T00:42:32;16.90;;;12.70;;
215;SDS011;70668;48.81286795;9.14184224;2023-08-30T00:45:00;14.57;;;11.40;;
215;SDS011;70668;48.81286795;9.14184224;2023-08-30T00:47:31;18.30;;;12.23;;
215;SDS011;70668;48.81286795;9.14184224;2023-08-30T00:50:02;16.70;;;11.43;;
215;SDS011;70668;48.81286795;9.14184224;2023-08-30T00:52:32;16.60;;;11.37;;
215;SDS011;70668;48.81286795;9.14184224;2023-08-30T00:55:01;15.00;;;11.50;;
215;SDS011;70668;48.81286795;9.14184224;2023-08-30T00:57:29;15.50;;;11.70;;
215;SDS011;70668;48.81286795;9.14184224;2023-08-30T00:59:58;13.40;;;10.87;;
215;SDS011;70668;48.81286795;9.14184224;2023-08-30T01:02:26;19.60;;;11.63;;
215;SDS011;70668;48.81286795;9.14184224;2023-08-30T01:04:55;14.50;;;11.80;;
215;SDS011;70668;48.81286795;9.14184224;2023-08-30T01:07:26;18.97;;;11.60;;
215;SDS011;70668;48.81286795;9.14184224;2023-08-30T01:09:55;15.60;;;11.27;;
215;SDS011;70668;48.81286795;9.14184224;2023-08-30T01:12:27;15.40;;;11.10;;
215;SDS011;70668;48.81286795;9.14184224;2023-08-30T01:15:00;13.87;;;11.60;;
215;SDS011;70668;48.81286795;9.14184224;2023-08-30T01:17:36;13.13;;;10.40;;
215;SDS011;70668;48.81286795;9.14184224;2023-08-30T01:20:06;17.00;;;11.23;;
215;SDS011;70668;48.81286795;9.14184224;2023-08-30T01:22:43;12.77;;;10.30;;
215;SDS011;70668;48.81286795;9.14184224;2023-08-30T01:25:17;12.90;;;10.53;;
215;SDS011;70668;48.81286795;9.14184224;2023-08-30T01:27:55;12.17;;;10.40;;
215;SDS011;70668;48.81286795;9.14184224;2023-08-30T01:30:24;20.47;;;10.83;;
215;SDS011;70668;48.81286795;9.14184224;2023-08-30T01:32:54;13.97;;;10.23;;
215;SDS011;70668;48.81286795;9.14184224;2023-08-30T01:35:23;14.00;;;9.93;;
215;SDS011;70668;48.81286795;9.14184224;2023-08-30T01:37:59;14.70;;;10.10;;
215;SDS011;70668;48.81286795;9.14184224;2023-08-30T01:40:28;12.53;;;10.10;;
215;SDS011;70668;48.81286795;9.14184224;2023-08-30T01:43:01;13.73;;;9.43;;
215;SDS011;70668;48.81286795;9.14184224;2023-08-30T01:45:31;13.70;;;9.80;;
215;SDS011;70668;48.81286795;9.14184224;2023-08-30T01:48:00;12.27;;;9.50;;
215;SDS011;70668;48.81286795;9.14184224;2023-08-30T01:50:28;13.20;;;10.00;;
215;SDS011;70668;48.81286795;9.14184224;2023-08-30T01:52:57;16.73;;;10.33;;
215;SDS011;70668;48.81286795;9.14184224;2023-08-30T01:55:27;12.83;;;9.40;;
215;SDS011;70668;48.81286795;9.14184224;2023-08-30T01:57:57;12.70;;;9.27;;
215;SDS011;70668;48.81286795;9.14184224;2023-08-30T02:00:28;11.40;;;9.13;;
215;SDS011;70668;48.81286795;9.14184224;2023-08-30T02:02:58;12.73;;;8.27;;
215;SDS011;70668;48.81286795;9.14184224;2023-08-30T02:05:26;11.93;;;8.73;;
215;SDS011;70668;48.81286795;9.14184224;2023-08-30T02:07:57;11.30;;;8.20;;
215;SDS011;70668;48.81286795;9.14184224;2023-08-30T02:10:31;16.17;;;8.80;;
215;SDS011;70668;48.81286795;9.14184224;2023-08-30T02:13:05;14.90;;;9.10;;
215;SDS011;70668;48.81286795;9.14184224;2023-08-30T02:15:34;20.43;;;9.40;;
215;SDS011;70668;48.81286795;9.14184224;2023-08-30T02:18:04;14.03;;;9.00;;
215;SDS011;70668;48.81286795;9.14184224;2023-08-30T02:20:33;14.43;;;8.60;;
215;SDS011;70668;48.81286795;9.14184224;2023-08-30T02:23:01;12.53;;;8.37;;
215;SDS011;70668;48.81286795;9.14184224;2023-08-30T02:25:30;14.80;;;8.43;;
215;SDS011;70668;48.81286795;9.14184224;2023-08-30T02:27:58;13.03;;;8.40;;
215;SDS011;70668;48.81286795;9.14184224;2023-08-30T02:30:29;14.13;;;8.87;;
215;SDS011;70668;48.81286795;9.14184224;2023-08-30T02:32:58;12.37;;;8.70;;
215;SDS011;70668;48.81286795;9.14184224;2023-08-30T02:35:26;10.40;;;8.60;;
215;SDS011;70668;48.81286795;9.14184224;2023-08-30T02:37:54;11.13;;;8.40;;
215;SDS011;70668;48.81286795;9.14184224;2023-08-30T02:40:23;12.70;;;8.67;;
215;SDS011;70668;48.81286795;9.14184224;2023-08-30T02:42:51;11.17;;;8.10;;
215;SDS011;70668;48.81286795;9.14184224;2023-08-30T02:45:20;10.93;;;8.43;;
215;SDS011;70668;48.81286795;9.14184224;2023-08-30T02:47:51;12.93;;;7.60;;
215;SDS011;70668;48.81286795;9.14184224;2023-08-30T02:50:19;12.47;;;8.43;;
215;SDS011;70668;48.81286795;9.14184224;2023-08-30T02:52:47;13.90;;;8.10;;
215;SDS011;70668;48.81286795;9.14184224;2023-08-30T02:55:16;11.00;;;8.33;;
215;SDS011;70668;48.81286795;9.14184224;2023-08-30T02:57:44;14.80;;;8.17;;
215;SDS011;70668;48.81286795;9.14184224;2023-08-30T03:00:14;12.65;;;8.90;;
215;SDS011;70668;48.81286795;9.14184224;2023-08-30T03:02:46;14.50;;;8.60;;
215;SDS011;70668;48.81286795;9.14184224;2023-08-30T03:05:18;11.20;;;8.00;;
215;SDS011;70668;48.81286795;9.14184224;2023-08-30T03:07:46;12.37;;;8.37;;
215;SDS011;70668;48.81286795;9.14184224;2023-08-30T03:10:17;11.90;;;8.63;;
215;SDS011;70668;48.81286795;9.14184224;2023-08-30T03:12:46;12.47;;;9.23;;
215;SDS011;70668;48.81286795;9.14184224;2023-08-30T03:15:14;11.60;;;9.83;;
215;SDS011;70668;48.81286795;9.14184224;2023-08-30T03:17:43;12.40;;;9.10;;
215;SDS011;70668;48.81286795;9.14184224;2023-08-30T03:20:12;19.13;;;9.80;;
215;SDS011;70668;48.81286795;9.14184224;2023-08-30T03:22:43;15.20;;;9.97;;
215;SDS011;70668;48.81286795;9.14184224;2023-08-30T03:25:13;13.53;;;9.93;;
215;SDS011;70668;48.81286795;9.14184224;2023-08-30T03:27:43;15.20;;;9.57;;
215;SDS011;70668;48.81286795;9.14184224;2023-08-30T03:30:12;12.37;;;10.00;;
215;SDS011;70668;48.81286795;9.14184224;2023-08-30T03:32:42;16.87;;;9.93;;
215;SDS011;70668;48.81286795;9.14184224;2023-08-30T03:35:10;14.20;;;10.37;;
215;SDS011;70668;48.81286795;9.14184224;2023-08-30T03:37:40;17.00;;;10.23;;
215;SDS011;70668;48.81286795;9.14184224;2023-08-30T03:40:11;13.50;;;11.10;;
215;SDS011;70668;48.81286795;9.14184224;2023-08-30T03:42:42;15.60;;;10.03;;
215;SDS011;70668;48.81286795;9.14184224;2023-08-30T03:45:10;13.40;;;10.60;;
215;SDS011;70668;48.81286795;9.14184224;2023-08-30T03:47:39;13.90;;;10.67;;
215;SDS011;70668;48.81286795;9.14184224;2023-08-30T03:50:07;14.80;;;11.00;;
215;SDS011;70668;48.81286795;9.14184224;2023-08-30T03:52:36;14.43;;;11.10;;
215;SDS011;70668;48.81286795;9.14184224;2023-08-30T03:55:04;14.93;;;11.20;;
215;SDS011;70668;48.81286795;9.14184224;2023-08-30T03:57:37;15.10;;;11.50;;
215;SDS011;70668;48.81286795;9.14184224;2023-08-30T04:00:05;14.37;;;11.10;;
215;SDS011;70668;48.81286795;9.14184224;2023-08-30T04:02:42;16.00;;;11.03;;
215;SDS011;70668;48.81286795;9.14184224;2023-08-30T04:05:11;14.57;;;10.47;;
215;SDS011;70668;48.81286795;9.14184224;2023-08-30T04:07:39;14.93;;;9.97;;
215;SDS011;70668;48.81286795;9.14184224;2023-08-30T04:10:08;11.97;;;9.27;;
215;SDS011;70668;48.81286795;9.14184224;2023-08-30T04:12:39;12.57;;;9.20;;
215;SDS011;70668;48.81286795;9.14184224;2023-08-30T04:15:08;13.00;;;9.03;;
215;SDS011;70668;48.81286795;9.14184224;2023-08-30T04:17:39;10.33;;;8.50;;
215;SDS011;70668;48.81286795;9.14184224;2023-08-30T04:20:07;11.93;;;8.77;;
215;SDS011;70668;48.81286795;9.14184224;2023-08-30T04:22:37;13.50;;;8.00;;
215;SDS011;70668;48.81286795;9.14184224;2023-08-30T04:25:05;11.13;;;8.70;;
215;SDS011;70668;48.81286795;9.14184224;2023-08-30T04:27:34;16.43;;;9.30;;
215;SDS011;70668;48.81286795;9.14184224;2023-08-30T04:30:06;16.13;;;9.53;;
215;SDS011;70668;48.81286795;9.14184224;2023-08-30T04:32:35;15.13;;;8.80;;
215;SDS011;70668;48.81286795;9.14184224;2023-08-30T04:35:04;12.93;;;8.30;;
215;SDS011;70668;48.81286795;9.14184224;2023-08-30T04:37:34;13.33;;;8.70;;
215;SDS011;70668;48.81286795;9.14184224;2023-08-30T04:40:04;17.77;;;9.40;;
215;SDS011;70668;48.81286795;9.14184224;2023-08-30T04:42:34;12.77;;;10.07;;
215;SDS011;70668;48.81286795;9.14184224;2023-08-30T04:45:06;15.87;;;10.93;;
215;SDS011;70668;48.81286795;9.14184224;2023-08-30T04:47:35;20.73;;;10.73;;
215;SDS011;70668;48.81286795;9.14184224;2023-08-30T04:50:04;16.30;;;11.50;;
215;SDS011;70668;48.81286795;9.14184224;2023-08-30T04:52:34;17.80;;;11.93;;
215;SDS011;70668;48.81286795;9.14184224;2023-08-30T04:55:02;21.20;;;11.70;;
215;SDS011;70668;48.81286795;9.14184224;2023-08-30T04:57:32;14.13;;;11.53;;
215;SDS011;70668;48.81286795;9.14184224;2023-08-30T05:00:03;15.60;;;11.67;;
215;SDS011;70668;48.81286795;9.14184224;2023-08-30T05:02:35;15.47;;;11.90;;
215;SDS011;70668;48.81286795;9.14184224;2023-08-30T05:05:08;20.53;;;12.43;;
215;SDS011;70668;48.81286795;9.14184224;2023-08-30T05:07:37;17.93;;;11.83;;
215;SDS011;70668;48.81286795;9.14184224;2023-08-30T05:10:06;16.13;;;11.43;;
215;SDS011;70668;48.81286795;9.14184224;2023-08-30T05:12:36;18.00;;;12.50;;
215;SDS011;70668;48.81286795;9.14184224;2023-08-30T05:15:09;25.07;;;14.53;;
215;SDS011;70668;48.81286795;9.14184224;2023-08-30T05:17:37;18.70;;;12.80;;
215;SDS011;70668;48.81286795;9.14184224;2023-08-30T05:20:06;17.50;;;13.00;;
215;SDS011;70668;48.81286795;9.14184224;2023-08-30T05:22:36;16.30;;;12.37;;
215;SDS011;70668;48.81286795;9.14184224;2023-08-30T05:25:04;17.00;;;12.70;;
215;SDS011;70668;48.81286795;9.14184224;2023-08-30T05:27:33;21.60;;;13.20;;
215;SDS011;70668;48.81286795;9.14184224;2023-08-30T05:30:02;17.40;;;13.07;;
215;SDS011;70668;48.81286795;9.14184224;2023-08-30T05:32:35;16.20;;;12.50;;
215;SDS011;70668;48.81286795;9.14184224;2023-08-30T05:35:22;15.20;;;12.60;;
215;SDS011;70668;48.81286795;9.14184224;2023-08-30T05:38:13;14.93;;;12.27;;
215;SDS011;70668;48.81286795;9.14184224;2023-08-30T05:41:07;19.87;;;12.80;;
215;SDS011;70668;48.81286795;9.14184224;2023-08-30T05:43:36;18.50;;;12.80;;
215;SDS011;70668;48.81286795;9.14184224;2023-08-30T05:46:04;15.87;;;12.83;;
215;SDS011;70668;48.81286795;9.14184224;2023-08-30T05:48:42;15.97;;;12.70;;
215;SDS011;70668;48.81286795;9.14184224;2023-08-30T05:51:11;16.33;;;12.90;;
215;SDS011;70668;48.81286795;9.14184224;2023-08-30T05:53:39;15.60;;;12.50;;
215;SDS011;70668;48.81286795;9.14184224;2023-08-30T05:56:08;17.20;;;12.50;;
215;SDS011;70668;48.81286795;9.14184224;2023-08-30T05:58:36;16.07;;;12.53;;
215;SDS011;70668;48.81286795;9.14184224;2023-08-30T06:01:05;19.80;;;11.93;;
215;SDS011;70668;48.81286795;9.14184224;2023-08-30T06:03:34;15.70;;;12.30;;
215;SDS011;70668;48.81286795;9.14184224;2023-08-30T06:06:05;21.70;;;12.03;;
215;SDS011;70668;48.81286795;9.14184224;2023-08-30T06:08:33;16.23;;;11.80;;
215;SDS011;70668;48.81286795;9.14184224;2023-08-30T06:11:02;16.53;;;12.33;;
215;SDS011;70668;48.81286795;9.14184224;2023-08-30T06:13:30;14.43;;;11.90;;
215;SDS011;70668;48.81286795;9.14184224;2023-08-30T06:15:58;17.90;;;12.40;;
215;SDS011;70668;48.81286795;9.14184224;2023-08-30T06:18:29;16.73;;;12.27;;
215;SDS011;70668;48.81286795;9.14184224;2023-08-30T06:20:58;17.60;;;11.30;;
215;SDS011;70668;48.81286795;9.14184224;2023-08-30T06:23:29;15.53;;;11.03;;
215;SDS011;70668;48.81286795;9.14184224;2023-08-30T06:25:58;16.50;;;10.90;;
215;SDS011;70668;48.81286795;9.14184224;2023-08-30T06:28:28;14.27;;;10.73;;
215;SDS011;70668;48.81286795;9.14184224;2023-08-30T06:30:56;13.93;;;10.90;;
215;SDS011;70668;48.81286795;9.14184224;2023-08-30T06:33:25;15.90;;;12.57;;
215;SDS011;70668;48.81286795;9.14184224;2023-08-30T06:35:53;17.47;;;12.60;;
215;SDS011;70668;48.81286795;9.14184224;2023-08-30T06:38:22;16.10;;;12.17;;
215;SDS011;70668;48.81286795;9.14184224;2023-08-30T06:40:53;14.90;;;11.63;;
215;SDS011;70668;48.81286795;9.14184224;2023-08-30T06:43:21;14.60;;;11.77;;
215;SDS011;70668;48.81286795;9.14184224;2023-08-30T06:45:50;19.23;;;11.47;;
215;SDS011;70668;48.81286795;9.14184224;2023-08-30T06:48:19;14.03;;;11.03;;
215;SDS011;70668;48.81286795;9.14184224;2023-08-30T06:50:47;13.93;;;10.87;;
215;SDS011;70668;48.81286795;9.14184224;2023-08-30T06:53:16;20.73;;;11.47;;
215;SDS011;70668;48.81286795;9.14184224;2023-08-30T06:55:44;16.57;;;12.20;;
215;SDS011;70668;48.81286795;9.14184224;2023-08-30T06:58:15;17.57;;;10.37;;
215;SDS011;70668;48.81286795;9.14184224;2023-08-30T07:00:47;12.83;;;10.20;;
215;SDS011;70668;48.81286795;9.14184224;2023-08-30T07:03:15;12.27;;;9.40;;
215;SDS011;70668;48.81286795;9.14184224;2023-08-30T07:05:44;11.83;;;9.23;;
215;SDS011;70668;48.81286795;9.14184224;2023-08-30T07:08:13;12.40;;;9.77;;
215;SDS011;70668;48.81286795;9.14184224;2023-08-30T07:10:41;14.10;;;9.83;;
215;SDS011;70668;48.81286795;9.14184224;2023-08-30T07:13:10;13.80;;;9.80;;
215;SDS011;70668;48.81286795;9.14184224;2023-08-30T07:15:41;12.67;;;9.20;;
215;SDS011;70668;48.81286795;9.14184224;2023-08-30T07:18:10;13.40;;;9.77;;
215;SDS011;70668;48.81286795;9.14184224;2023-08-30T07:20:39;15.20;;;10.50;;
215;SDS011;70668;48.81286795;9.14184224;2023-08-30T07:23:08;16.50;;;10.90;;
215;SDS011;70668;48.81286795;9.14184224;2023-08-30T07:25:36;15.20;;;10.10;;
215;SDS011;70668;48.81286795;9.14184224;2023-08-30T07:28:05;14.60;;;11.57;;
215;SDS011;70668;48.81286795;9.14184224;2023-08-30T07:30:33;15.77;;;11.20;;
215;SDS011;70668;48.81286795;9.14184224;2023-08-30T07:33:06;14.73;;;10.87;;
215;SDS011;70668;48.81286795;9.14184224;2023-08-30T07:35:34;20.10;;;12.10;;
215;SDS011;70668;48.81286795;9.14184224;2023-08-30T07:38:04;17.13;;;11.77;;
215;SDS011;70668;48.81286795;9.14184224;2023-08-30T07:40:33;14.13;;;10.70;;
215;SDS011;70668;48.81286795;9.14184224;2023-08-30T07:43:02;16.37;;;10.93;;
215;SDS011;70668;48.81286795;9.14184224;2023-08-30T07:45:31;16.83;;;10.30;;
215;SDS011;70668;48.81286795;9.14184224;2023-08-30T07:47:59;20.80;;;10.00;;
215;SDS011;70668;48.81286795;9.14184224;2023-08-30T07:50:31;14.27;;;9.47;;
215;SDS011;70668;48.81286795;9.14184224;2023-08-30T07:52:59;13.50;;;9.70;;
215;SDS011;70668;48.81286795;9.14184224;2023-08-30T07:55:28;11.00;;;8.87;;
215;SDS011;70668;48.81286795;9.14184224;2023-08-30T07:57:56;12.23;;;9.30;;
215;SDS011;70668;48.81286795;9.14184224;2023-08-30T08:00:25;11.30;;;9.30;;
215;SDS011;70668;48.81286795;9.14184224;2023-08-30T08:02:53;16.13;;;9.57;;
215;SDS011;70668;48.81286795;9.14184224;2023-08-30T08:05:24;15.40;;;9.70;;
215;SDS011;70668;48.81286795;9.14184224;2023-08-30T08:07:59;14.60;;;9.97;;
215;SDS011;70668;48.81286795;9.14184224;2023-08-30T08:10:28;11.83;;;9.40;;
215;SDS011;70668;48.81286795;9.14184224;2023-08-30T08:12:56;13.73;;;8.80;;
215;SDS011;70668;48.81286795;9.14184224;2023-08-30T08:15:25;14.37;;;9.07;;
215;SDS011;70668;48.81286795;9.14184224;2023-08-30T08:17:54;15.20;;;9.70;;
215;SDS011;70668;48.81286795;9.14184224;2023-08-30T08:20:22;12.53;;;9.23;;
215;SDS011;70668;48.81286795;9.14184224;2023-08-30T08:22:51;13.70;;;9.93;;
215;SDS011;70668;48.81286795;9.14184224;2023-08-30T08:25:22;13.87;;;9.70;;
215;SDS011;70668;48.81286795;9.14184224;2023-08-30T08:27:50;16.23;;;9.33;;
215;SDS011;70668;48.81286795;9.14184224;2023-08-30T08:30:19;12.90;;;9.90;;
215;SDS011;70668;48.81286795;9.14184224;2023-08-30T08:32:48;15.47;;;9.90;;
215;SDS011;70668;48.81286795;9.14184224;2023-08-30T08:35:16;14.77;;;9.00;;
215;SDS011;70668;48.81286795;9.14184224;2023-08-30T08:37:45;13.87;;;8.67;;
215;SDS011;70668;48.81286795;9.14184224;2023-08-30T08:40:14;12.33;;;8.90;;
215;SDS011;70668;48.81286795;9.14184224;2023-08-30T08:42:45;16.03;;;8.00;;
215;SDS011;70668;48.81286795;9.14184224;2023-08-30T08:45:15;11.67;;;8.07;;
215;SDS011;70668;48.81286795;9.14184224;2023-08-30T08:47:45;9.13;;;7.73;;
215;SDS011;70668;48.81286795;9.14184224;2023-08-30T08:50:14;16.20;;;8.27;;
215;SDS011;70668;48.81286795;9.14184224;2023-08-30T08:52:42;10.53;;;7.93;;
215;SDS011;70668;48.81286795;9.14184224;2023-08-30T08:55:11;13.60;;;7.30;;
215;SDS011;70668;48.81286795;9.14184224;2023-08-30T08:57:40;10.80;;;7.87;;
215;SDS011;70668;48.81286795;9.14184224;2023-08-30T09:00:13;10.10;;;7.70;;
215;SDS011;70668;48.81286795;9.14184224;2023-08-30T09:02:41;12.63;;;7.13;;
215;SDS011;70668;48.81286795;9.14184224;2023-08-30T09:05:11;10.83;;;6.93;;
215;SDS011;70668;48.81286795;9.14184224;2023-08-30T09:07:40;8.83;;;6.93;;
215;SDS011;70668;48.81286795;9.14184224;2023-08-30T09:10:08;12.90;;;7.10;;
215;SDS011;70668;48.81286795;9.14184224;2023-08-30T09:12:37;10.57;;;6.40;;
215;SDS011;70668;48.81286795;9.14184224;2023-08-30T09:15:06;8.30;;;6.40;;
215;SDS011;70668;48.81286795;9.14184224;2023-08-30T09:17:37;12.53;;;6.77;;
215;SDS011;70668;48.81286795;9.14184224;2023-08-30T09:20:08;9.20;;;5.87;;
215;SDS011;70668;48.81286795;9.14184224;2023-08-30T09:22:37;7.50;;;5.70;;
215;SDS011;70668;48.81286795;9.14184224;2023-08-30T09:25:07;12.83;;;6.20;;
215;SDS011;70668;48.81286795;9.14184224;2023-08-30T09:27:37;7.43;;;5.80;;
215;SDS011;70668;48.81286795;9.14184224;2023-08-30T09:30:07;7.80;;;5.67;;
215;SDS011;70668;48.81286795;9.14184224;2023-08-30T09:32:42;7.73;;;5.33;;
215;SDS011;70668;48.81286795;9.14184224;2023-08-30T09:35:11;7.37;;;4.87;;
215;SDS011;70668;48.81286795;9.14184224;2023-08-30T09:37:39;6.00;;;4.67;;
215;SDS011;70668;48.81286795;9.14184224;2023-08-30T09:40:08;7.87;;;4.40;;
215;SDS011;70668;48.81286795;9.14184224;2023-08-30T09:42:40;8.97;;;5.23;;
215;SDS011;70668;48.81286795;9.14184224;2023-08-30T09:45:17;6.10;;;4.83;;
215;SDS011;70668;48.81286795;9.14184224;2023-08-30T09:47:49;6.33;;;4.60;;
215;SDS011;70668;48.81286795;9.14184224;2023-08-30T09:50:18;6.37;;;4.37;;
215;SDS011;70668;48.81286795;9.14184224;2023-08-30T09:52:47;7.00;;;4.67;;
215;SDS011;70668;48.81286795;9.14184224;2023-08-30T09:55:16;7.10;;;4.53;;
215;SDS011;70668;48.81286795;9.14184224;2023-08-30T09:57:46;7.73;;;4.77;;
215;SDS011;70668;48.81286795;9.14184224;2023-08-30T10:00:15;6.43;;;4.83;;
215;SDS011;70668;48.81286795;9.14184224;2023-08-30T10:02:44;5.90;;;4.50;;
215;SDS011;70668;48.81286795;9.14184224;2023-08-30T10:05:15;5.50;;;3.97;;
215;SDS011;70668;48.81286795;9.14184224;2023-08-30T10:07:44;6.23;;;3.93;;
215;SDS011;70668;48.81286795;9.14184224;2023-08-30T10:10:12;5.33;;;3.80;;
215;SDS011;70668;48.81286795;9.14184224;2023-08-30T10:12:41;7.50;;;4.23;;
215;SDS011;70668;48.81286795;9.14184224;2023-08-30T10:15:11;5.20;;;3.90;;
215;SDS011;70668;48.81286795;9.14184224;2023-08-30T10:17:41;5.70;;;4.10;;
215;SDS011;70668;48.81286795;9.14184224;2023-08-30T10:20:15;8.80;;;4.70;;
215;SDS011;70668;48.81286795;9.14184224;2023-08-30T10:22:44;6.73;;;4.70;;
215;SDS011;70668;48.81286795;9.14184224;2023-08-30T10:25:14;5.40;;;3.80;;
215;SDS011;70668;48.81286795;9.14184224;2023-08-30T10:27:46;7.23;;;3.90;;
215;SDS011;70668;48.81286795;9.14184224;2023-08-30T10:30:16;6.60;;;3.80;;
215;SDS011;70668;48.81286795;9.14184224;2023-08-30T10:32:45;11.60;;;3.83;;
215;SDS011;70668;48.81286795;9.14184224;2023-08-30T10:35:17;5.13;;;3.87;;
215;SDS011;70668;48.81286795;9.14184224;2023-08-30T10:37:53;8.43;;;3.97;;
215;SDS011;70668;48.81286795;9.14184224;2023-08-30T10:40:22;7.50;;;3.90;;
215;SDS011;70668;48.81286795;9.14184224;2023-08-30T10:43:00;6.60;;;4.43;;
215;SDS011;70668;48.81286795;9.14184224;2023-08-30T10:45:29;7.03;;;4.57;;
215;SDS011;70668;48.81286795;9.14184224;2023-08-30T10:47:58;5.53;;;3.93;;
215;SDS011;70668;48.81286795;9.14184224;2023-08-30T10:50:31;5.77;;;3.60;;
215;SDS011;70668;48.81286795;9.14184224;2023-08-30T10:53:00;5.13;;;3.63;;
215;SDS011;70668;48.81286795;9.14184224;2023-08-30T10:55:30;8.40;;;4.40;;
215;SDS011;70668;48.81286795;9.14184224;2023-08-30T10:57:59;6.30;;;4.17;;
215;SDS011;70668;48.81286795;9.14184224;2023-08-30T11:00:29;5.63;;;4.27;;
215;SDS011;70668;48.81286795;9.14184224;2023-08-30T11:02:58;6.97;;;4.20;;
215;SDS011;70668;48.81286795;9.14184224;2023-08-30T11:05:29;5.90;;;4.37;;
215;SDS011;70668;48.81286795;9.14184224;2023-08-30T11:08:00;6.50;;;4.20;;
215;SDS011;70668;48.81286795;9.14184224;2023-08-30T11:10:29;7.13;;;5.00;;
215;SDS011;70668;48.81286795;9.14184224;2023-08-30T11:12:57;7.60;;;4.80;;
215;SDS011;70668;48.81286795;9.14184224;2023-08-30T11:15:26;5.93;;;4.40;;
215;SDS011;70668;48.81286795;9.14184224;2023-08-30T11:18:02;10.97;;;4.80;;
215;SDS011;70668;48.81286795;9.14184224;2023-08-30T11:20:33;8.40;;;5.00;;
215;SDS011;70668;48.81286795;9.14184224;2023-08-30T11:23:03;9.07;;;5.80;;
215;SDS011;70668;48.81286795;9.14184224;2023-08-30T11:25:32;8.30;;;5.43;;
215;SDS011;70668;48.81286795;9.14184224;2023-08-30T11:28:01;9.60;;;5.60;;
215;SDS011;70668;48.81286795;9.14184224;2023-08-30T11:30:30;7.40;;;5.50;;
215;SDS011;70668;48.81286795;9.14184224;2023-08-30T11:32:58;8.50;;;6.00;;
215;SDS011;70668;48.81286795;9.14184224;2023-08-30T11:35:26;7.37;;;6.07;;
215;SDS011;70668;48.81286795;9.14184224;2023-08-30T11:37:58;9.27;;;6.80;;
215;SDS011;70668;48.81286795;9.14184224;2023-08-30T11:40:27;12.20;;;7.80;;
215;SDS011;70668;48.81286795;9.14184224;2023-08-30T11:42:56;14.13;;;9.47;;
215;SDS011;70668;48.81286795;9.14184224;2023-08-30T11:45:25;16.30;;;10.60;;
215;SDS011;70668;48.81286795;9.14184224;2023-08-30T11:47:53;15.23;;;10.93;;
215;SDS011;70668;48.81286795;9.14184224;2023-08-30T11:50:22;13.10;;;9.30;;
215;SDS011;70668;48.81286795;9.14184224;2023-08-30T11:52:50;13.63;;;10.97;;
215;SDS011;70668;48.81286795;9.14184224;2023-08-30T11:55:21;13.50;;;10.90;;
215;SDS011;70668;48.81286795;9.14184224;2023-08-30T11:57:50;14.03;;;9.03;;
215;SDS011;70668;48.81286795;9.14184224;2023-08-30T12:00:19;12.77;;;9.00;;
215;SDS011;70668;48.81286795;9.14184224;2023-08-30T12:02:48;13.00;;;9.40;;
215;SDS011;70668;48.81286795;9.14184224;2023-08-30T12:05:16;11.87;;;8.67;;
215;SDS011;70668;48.81286795;9.14184224;2023-08-30T12:07:45;11.50;;;7.80;;
215;SDS011;70668;48.81286795;9.14184224;2023-08-30T12:10:17;13.70;;;7.90;;
215;SDS011;70668;48.81286795;9.14184224;2023-08-30T12:12:49;11.93;;;8.20;;
215;SDS011;70668;48.81286795;9.14184224;2023-08-30T12:15:18;9.40;;;7.73;;
215;SDS011;70668;48.81286795;9.14184224;2023-08-30T12:17:46;10.77;;;8.63;;
215;SDS011;70668;48.81286795;9.14184224;2023-08-30T12:20:15;10.43;;;8.47;;
215;SDS011;70668;48.81286795;9.14184224;2023-08-30T12:22:45;10.73;;;7.80;;
215;SDS011;70668;48.81286795;9.14184224;2023-08-30T12:25:16;10.20;;;7.70;;
215;SDS011;70668;48.81286795;9.14184224;2023-08-30T12:27:46;7.90;;;6.30;;
215;SDS011;70668;48.81286795;9.14184224;2023-08-30T12:30:20;10.13;;;6.90;;
215;SDS011;70668;48.81286795;9.14184224;2023-08-30T12:32:49;8.50;;;6.60;;
215;SDS011;70668;48.81286795;9.14184224;2023-08-30T12:35:17;11.20;;;7.60;;
215;SDS011;70668;48.81286795;9.14184224;2023-08-30T12:37:46;9.07;;;7.30;;
215;SDS011;70668;48.81286795;9.14184224;2023-08-30T12:40:14;10.70;;;7.50;;
215;SDS011;70668;48.81286795;9.14184224;2023-08-30T12:42:42;8.73;;;7.30;;
215;SDS011;70668;48.81286795;9.14184224;2023-08-30T12:45:11;8.10;;;6.50;;
215;SDS011;70668;48.81286795;9.14184224;2023-08-30T12:47:42;9.73;;;6.50;;
215;SDS011;70668;48.81286795;9.14184224;2023-08-30T12:50:10;8.00;;;6.50;;
215;SDS011;70668;48.81286795;9.14184224;2023-08-30T12:52:38;9.07;;;6.80;;
215;SDS011;70668;48.81286795;9.14184224;2023-08-30T12:55:07;12.60;;;8.00;;
215;SDS011;70668;48.81286795;9.14184224;2023-08-30T12:57:36;10.00;;;7.33;;
215;SDS011;70668;48.81286795;9.14184224;2023-08-30T13:00:05;9.50;;;7.40;;
215;SDS011;70668;48.81286795;9.14184224;2023-08-30T13:02:35;9.20;;;6.70;;
215;SDS011;70668;48.81286795;9.14184224;2023-08-30T13:05:06;9.90;;;6.73;;
215;SDS011;70668;48.81286795;9.14184224;2023-08-30T13:07:36;7.53;;;6.00;;
215;SDS011;70668;48.81286795;9.14184224;2023-08-30T13:10:05;6.80;;;5.10;;
215;SDS011;70668;48.81286795;9.14184224;2023-08-30T13:12:35;7.73;;;5.00;;